Time;durP1;ratioP1;P1;durP2;ratioP2;P2;SDS_P1;SDS_P2;PMS_P1;PMS_P2;Temp;Humidity;BMP_temperature;BMP_pressure;BME280_temperature;BME280_humidity;BME280_pressure;Samples;Min_cycle;Max_cycle;Signal;HPM_P1;HPM_P2
2021/05/12 00:00:51;;;;;;;9.40;2.30;;;;;;;;;;5094665;28;20200;-78
2021/05/12 00:03:17;;;;;;;8.17;2.10;;;;;;;;;;5093946;28;20250;-78
2021/05/12 00:05:44;;;;;;;7.33;1.60;;;;;;;;;;5093651;28;20289;-78
2021/05/12 00:08:11;;;;;;;10.33;2.13;;;;;;;;;;5094091;28;20239;-78
2021/05/12 00:10:38;;;;;;;10.50;2.20;;;;;;;;;;5093668;28;20291;-77
2021/05/12 00:13:05;;;;;;;9.10;2.13;;;;;;;;;;5094295;28;20293;-78
2021/05/12 00:15:31;;;;;;;10.93;1.83;;;;;;;;;;5094391;28;20335;-78
2021/05/12 00:17:58;;;;;;;8.37;2.00;;;;;;;;;;5094093;28;20297;-77
2021/05/12 00:20:27;;;;;;;7.90;2.13;;;;;;;;;;5093766;28;20194;-78
2021/05/12 00:22:57;;;;;;;9.33;2.07;;;;;;;;;;5093431;28;20602;-78
2021/05/12 00:25:24;;;;;;;12.67;2.40;;;;;;;;;;5093494;28;20203;-77
2021/05/12 00:27:51;;;;;;;10.07;2.27;;;;;;;;;;5093909;28;20248;-78
2021/05/12 00:30:19;;;;;;;10.10;2.27;;;;;;;;;;5093203;28;20602;-78
2021/05/12 00:32:46;;;;;;;14.23;2.40;;;;;;;;;;5093920;28;20233;-77
2021/05/12 00:35:13;;;;;;;11.53;2.20;;;;;;;;;;5093738;28;20383;-78
2021/05/12 00:37:40;;;;;;;11.17;2.40;;;;;;;;;;5093357;28;20226;-77
2021/05/12 00:40:07;;;;;;;9.90;2.40;;;;;;;;;;5093846;28;20659;-77
2021/05/12 00:42:34;;;;;;;9.37;2.37;;;;;;;;;;5093013;28;20739;-78
2021/05/12 00:45:04;;;;;;;12.57;2.40;;;;;;;;;;5093877;28;20309;-77
2021/05/12 00:47:32;;;;;;;11.93;2.40;;;;;;;;;;5093272;28;20218;-78
2021/05/12 00:49:58;;;;;;;9.00;2.10;;;;;;;;;;5092536;28;20223;-77
2021/05/12 00:52:26;;;;;;;11.43;2.50;;;;;;;;;;5092583;28;20313;-77
2021/05/12 00:54:53;;;;;;;11.30;2.03;;;;;;;;;;5092749;28;20194;-77
2021/05/12 00:57:20;;;;;;;11.80;2.43;;;;;;;;;;5092868;28;20627;-78
2021/05/12 00:59:47;;;;;;;10.43;2.30;;;;;;;;;;5093257;28;20293;-77
2021/05/12 01:02:16;;;;;;;10.67;2.73;;;;;;;;;;5093583;28;20208;-76
2021/05/12 01:04:42;;;;;;;9.40;2.13;;;;;;;;;;5092799;28;20779;-77
2021/05/12 01:07:09;;;;;;;13.03;2.67;;;;;;;;;;5093056;28;20241;-77
2021/05/12 01:09:36;;;;;;;9.60;2.43;;;;;;;;;;5092986;28;20282;-76
2021/05/12 01:12:03;;;;;;;15.23;2.67;;;;;;;;;;5093595;28;20199;-76
2021/05/12 01:14:30;;;;;;;13.07;2.73;;;;;;;;;;5092419;28;20281;-76
2021/05/12 01:16:56;;;;;;;11.97;2.43;;;;;;;;;;5092143;28;20244;-76
2021/05/12 01:19:26;;;;;;;15.20;2.90;;;;;;;;;;5092952;28;20351;-76
2021/05/12 01:21:54;;;;;;;8.80;2.10;;;;;;;;;;5091877;28;20236;-76
2021/05/12 01:24:21;;;;;;;13.97;2.53;;;;;;;;;;5092726;28;20251;-76
2021/05/12 01:26:47;;;;;;;14.20;2.27;;;;;;;;;;5092259;28;20361;-76
2021/05/12 01:29:14;;;;;;;14.13;2.17;;;;;;;;;;5091831;28;20256;-77
2021/05/12 01:31:43;;;;;;;10.67;2.50;;;;;;;;;;5092882;28;20228;-76
2021/05/12 01:34:13;;;;;;;14.67;2.97;;;;;;;;;;5093017;28;20194;-76
2021/05/12 01:36:40;;;;;;;10.73;2.40;;;;;;;;;;5092169;28;20261;-76
2021/05/12 01:39:08;;;;;;;13.47;2.40;;;;;;;;;;5092592;28;20209;-78
2021/05/12 01:41:35;;;;;;;8.57;2.00;;;;;;;;;;5092619;28;20297;-78
2021/05/12 01:44:05;;;;;;;10.50;2.27;;;;;;;;;;5092155;28;20314;-76
2021/05/12 01:46:32;;;;;;;7.57;2.53;;;;;;;;;;5092502;28;20320;-78
2021/05/12 01:49:01;;;;;;;7.20;2.27;;;;;;;;;;5092305;28;20290;-78
2021/05/12 01:51:27;;;;;;;12.07;2.50;;;;;;;;;;5092731;28;20650;-78
2021/05/12 01:53:54;;;;;;;11.27;2.60;;;;;;;;;;5091382;28;20281;-78
2021/05/12 01:56:22;;;;;;;10.37;2.27;;;;;;;;;;5092416;28;20231;-76
2021/05/12 01:58:49;;;;;;;14.13;2.93;;;;;;;;;;5091285;28;20283;-77
2021/05/12 02:01:15;;;;;;;11.97;2.63;;;;;;;;;;5091472;28;20285;-76
2021/05/12 02:03:42;;;;;;;10.00;2.40;;;;;;;;;;5092163;28;20313;-79
2021/05/12 02:06:09;;;;;;;7.80;2.37;;;;;;;;;;5092437;28;20297;-77
2021/05/12 02:08:36;;;;;;;8.33;2.93;;;;;;;;;;5092497;28;20231;-76
2021/05/12 02:11:04;;;;;;;10.10;2.37;;;;;;;;;;5091728;28;20284;-78
2021/05/12 02:13:32;;;;;;;11.83;2.40;;;;;;;;;;5091026;28;20237;-78
2021/05/12 02:16:00;;;;;;;12.03;2.90;;;;;;;;;;5092055;28;20284;-79
2021/05/12 02:18:26;;;;;;;8.07;2.50;;;;;;;;;;5092033;28;20297;-76
2021/05/12 02:20:53;;;;;;;9.90;3.00;;;;;;;;;;5091502;28;20216;-79
2021/05/12 02:23:21;;;;;;;10.77;2.27;;;;;;;;;;5091693;28;20237;-76
2021/05/12 02:25:48;;;;;;;10.73;2.60;;;;;;;;;;5091125;28;20314;-76
2021/05/12 02:28:15;;;;;;;11.97;2.90;;;;;;;;;;5091301;28;20277;-76
2021/05/12 02:30:42;;;;;;;8.73;2.30;;;;;;;;;;5091771;28;20281;-76
2021/05/12 02:33:10;;;;;;;9.87;2.80;;;;;;;;;;5091474;28;20717;-77
2021/05/12 02:35:37;;;;;;;10.77;2.40;;;;;;;;;;5091658;28;20601;-78
2021/05/12 02:38:04;;;;;;;9.50;2.70;;;;;;;;;;5090947;28;20281;-76
2021/05/12 02:40:31;;;;;;;8.23;2.33;;;;;;;;;;5091723;28;20421;-78
2021/05/12 02:42:59;;;;;;;10.30;2.47;;;;;;;;;;5091331;28;20233;-79
2021/05/12 02:45:26;;;;;;;9.90;2.40;;;;;;;;;;5091369;28;20227;-78
2021/05/12 02:48:00;;;;;;;8.87;2.80;;;;;;;;;;5091538;28;20290;-78
2021/05/12 02:50:27;;;;;;;8.87;2.43;;;;;;;;;;5091339;28;20227;-78
2021/05/12 02:52:54;;;;;;;11.20;2.60;;;;;;;;;;5092039;28;20217;-78
2021/05/12 02:55:21;;;;;;;11.90;2.70;;;;;;;;;;5091524;28;20281;-78
2021/05/12 02:57:48;;;;;;;9.43;2.50;;;;;;;;;;5091341;28;20616;-78
2021/05/12 03:00:15;;;;;;;15.93;2.77;;;;;;;;;;5091546;28;20234;-78
2021/05/12 03:02:42;;;;;;;10.17;2.43;;;;;;;;;;5091537;28;20221;-78
2021/05/12 03:05:10;;;;;;;9.47;2.77;;;;;;;;;;5092765;28;20323;-79
2021/05/12 03:07:37;;;;;;;10.17;2.13;;;;;;;;;;5095986;28;20714;-78
2021/05/12 03:10:05;;;;;;;9.93;2.77;;;;;;;;;;5095242;28;20308;-78
2021/05/12 03:12:32;;;;;;;8.00;2.50;;;;;;;;;;5094526;28;20269;-78
2021/05/12 03:14:59;;;;;;;11.50;2.60;;;;;;;;;;5095447;28;20229;-76
2021/05/12 03:17:25;;;;;;;10.50;2.77;;;;;;;;;;5094647;28;20283;-78
2021/05/12 03:19:53;;;;;;;11.93;2.70;;;;;;;;;;5094506;28;20499;-78
2021/05/12 03:22:21;;;;;;;11.67;2.30;;;;;;;;;;5094059;28;20313;-78
2021/05/12 03:24:47;;;;;;;11.50;2.57;;;;;;;;;;5095312;28;20317;-78
2021/05/12 03:27:14;;;;;;;9.17;2.60;;;;;;;;;;5095079;28;20310;-78
2021/05/12 03:29:41;;;;;;;7.53;2.20;;;;;;;;;;5094730;28;20287;-78
2021/05/12 03:32:08;;;;;;;7.60;2.60;;;;;;;;;;5094954;28;20293;-76
2021/05/12 03:34:34;;;;;;;12.13;2.60;;;;;;;;;;5094910;28;20313;-78
2021/05/12 03:37:01;;;;;;;9.93;2.70;;;;;;;;;;5095378;28;20293;-76
2021/05/12 03:39:29;;;;;;;12.40;2.70;;;;;;;;;;5094323;28;20246;-78
2021/05/12 03:41:56;;;;;;;9.43;2.83;;;;;;;;;;5094751;28;20247;-78
2021/05/12 03:44:23;;;;;;;11.80;2.87;;;;;;;;;;5094505;28;20308;-78
2021/05/12 03:46:50;;;;;;;11.53;2.97;;;;;;;;;;5095454;28;20305;-78
2021/05/12 03:49:16;;;;;;;11.87;3.00;;;;;;;;;;5094089;28;20241;-77
2021/05/12 03:51:43;;;;;;;9.43;2.70;;;;;;;;;;5094780;28;20287;-78
2021/05/12 03:54:10;;;;;;;10.70;3.17;;;;;;;;;;5093781;28;20627;-78
2021/05/12 03:56:38;;;;;;;11.87;2.77;;;;;;;;;;5094046;28;20268;-78
2021/05/12 03:59:04;;;;;;;13.27;3.30;;;;;;;;;;5094684;28;20287;-78
2021/05/12 04:01:31;;;;;;;10.97;3.00;;;;;;;;;;5094151;28;20285;-78
2021/05/12 04:03:59;;;;;;;10.93;2.70;;;;;;;;;;5094199;28;20794;-78
2021/05/12 04:06:25;;;;;;;11.40;2.70;;;;;;;;;;5093969;28;20253;-78
2021/05/12 04:08:52;;;;;;;16.20;3.40;;;;;;;;;;5093988;28;20289;-78
2021/05/12 04:11:18;;;;;;;15.07;2.87;;;;;;;;;;5094707;28;20343;-78
2021/05/12 04:13:46;;;;;;;10.20;3.43;;;;;;;;;;5094016;28;20286;-78
2021/05/12 04:16:13;;;;;;;11.70;3.43;;;;;;;;;;5094040;28;20714;-78
2021/05/12 04:18:39;;;;;;;14.23;3.03;;;;;;;;;;5094039;28;20195;-78
2021/05/12 04:21:06;;;;;;;11.30;3.27;;;;;;;;;;5094225;28;20767;-78
2021/05/12 04:23:33;;;;;;;11.93;2.63;;;;;;;;;;5093111;28;20312;-78
2021/05/12 04:25:59;;;;;;;11.70;2.50;;;;;;;;;;5093974;28;20222;-78
2021/05/12 04:28:26;;;;;;;10.03;2.73;;;;;;;;;;5094032;28;20236;-78
2021/05/12 04:30:54;;;;;;;13.17;3.27;;;;;;;;;;5094206;28;20267;-78
2021/05/12 04:33:21;;;;;;;12.63;2.90;;;;;;;;;;5088597;28;20279;-79
2021/05/12 04:35:47;;;;;;;9.20;2.70;;;;;;;;;;5093472;28;20238;-78
2021/05/12 04:38:15;;;;;;;11.17;2.70;;;;;;;;;;5093003;28;20278;-77
2021/05/12 04:40:41;;;;;;;12.20;3.03;;;;;;;;;;5093319;28;20212;-78
2021/05/12 04:43:08;;;;;;;8.90;2.90;;;;;;;;;;5093841;28;20289;-78
2021/05/12 04:45:35;;;;;;;11.17;2.83;;;;;;;;;;5093251;28;20293;-78
2021/05/12 04:48:03;;;;;;;12.83;2.80;;;;;;;;;;5092856;28;20280;-78
2021/05/12 04:50:30;;;;;;;11.20;2.73;;;;;;;;;;5092833;28;20230;-78
2021/05/12 04:52:57;;;;;;;10.47;2.60;;;;;;;;;;5092357;28;20293;-78
2021/05/12 04:55:24;;;;;;;12.93;2.70;;;;;;;;;;5093042;28;20334;-78
2021/05/12 04:57:51;;;;;;;13.23;2.93;;;;;;;;;;5092673;28;20295;-78
2021/05/12 05:00:20;;;;;;;11.40;3.17;;;;;;;;;;5093066;28;20783;-78
2021/05/12 05:02:47;;;;;;;11.17;2.87;;;;;;;;;;5092769;28;20200;-78
2021/05/12 05:05:16;;;;;;;9.83;2.83;;;;;;;;;;5092304;28;20227;-76
2021/05/12 05:07:43;;;;;;;8.17;2.40;;;;;;;;;;5093572;28;20195;-76
2021/05/12 05:10:10;;;;;;;15.37;3.30;;;;;;;;;;5097768;28;20603;-77
2021/05/12 05:12:37;;;;;;;9.90;2.50;;;;;;;;;;5097005;28;20646;-78
2021/05/12 05:15:04;;;;;;;12.57;3.03;;;;;;;;;;5091843;28;20278;-78
2021/05/12 05:17:32;;;;;;;11.33;2.67;;;;;;;;;;5092401;28;20229;-78
2021/05/12 05:19:59;;;;;;;10.53;2.93;;;;;;;;;;5091224;28;20700;-78
2021/05/12 05:22:28;;;;;;;13.20;3.33;;;;;;;;;;5091548;28;20266;-78
2021/05/12 05:24:55;;;;;;;11.10;2.83;;;;;;;;;;5088601;28;20227;-78
2021/05/12 05:27:22;;;;;;;9.20;2.93;;;;;;;;;;5084084;28;20294;-79
2021/05/12 05:29:49;;;;;;;9.53;2.83;;;;;;;;;;5092363;28;20195;-78
2021/05/12 05:32:16;;;;;;;11.73;2.80;;;;;;;;;;5092328;28;20202;-78
2021/05/12 05:34:43;;;;;;;14.57;2.53;;;;;;;;;;5091542;28;20281;-75
2021/05/12 05:37:09;;;;;;;12.57;3.17;;;;;;;;;;5092957;28;21935;-76
2021/05/12 05:39:37;;;;;;;13.87;3.10;;;;;;;;;;5092909;28;20279;-78
2021/05/12 05:42:04;;;;;;;13.47;3.10;;;;;;;;;;5084927;28;20275;-78
2021/05/12 05:44:31;;;;;;;8.27;2.63;;;;;;;;;;5091818;28;21115;-77
2021/05/12 05:46:58;;;;;;;14.07;3.47;;;;;;;;;;5091211;28;20290;-77
2021/05/12 05:49:25;;;;;;;11.33;3.27;;;;;;;;;;5091050;28;20754;-76
2021/05/12 05:51:52;;;;;;;11.20;2.30;;;;;;;;;;5092088;28;20244;-77
2021/05/12 05:54:19;;;;;;;11.27;2.67;;;;;;;;;;5088967;28;20612;-78
2021/05/12 05:56:47;;;;;;;10.45;3.17;;;;;;;;;;5090191;28;20931;-75
2021/05/12 05:59:14;;;;;;;10.80;3.13;;;;;;;;;;5083507;28;20213;-76
2021/05/12 06:01:40;;;;;;;9.53;2.97;;;;;;;;;;5090192;28;20666;-75
2021/05/12 06:04:07;;;;;;;9.47;2.73;;;;;;;;;;5091245;28;20228;-76
2021/05/12 06:06:34;;;;;;;9.93;2.80;;;;;;;;;;5090537;28;20212;-77
2021/05/12 06:09:01;;;;;;;8.87;2.60;;;;;;;;;;5090983;28;20888;-75
2021/05/12 06:11:27;;;;;;;5.80;2.33;;;;;;;;;;5091113;28;20200;-77
2021/05/12 06:13:55;;;;;;;8.00;2.60;;;;;;;;;;5091411;28;20224;-77
2021/05/12 06:16:22;;;;;;;8.83;2.23;;;;;;;;;;5091451;28;20196;-78
2021/05/12 06:18:51;;;;;;;9.33;3.10;;;;;;;;;;5091455;28;20235;-77
2021/05/12 06:21:18;;;;;;;9.67;2.97;;;;;;;;;;5090722;28;20244;-78
2021/05/12 06:23:45;;;;;;;10.67;2.67;;;;;;;;;;5090814;28;20236;-77
2021/05/12 06:26:16;;;;;;;8.43;2.67;;;;;;;;;;5091114;28;20306;-78
2021/05/12 06:28:43;;;;;;;8.73;2.60;;;;;;;;;;5090690;28;20231;-78
2021/05/12 06:31:11;;;;;;;9.30;2.57;;;;;;;;;;5091691;28;20302;-78
2021/05/12 06:33:38;;;;;;;9.63;3.00;;;;;;;;;;5091081;28;20283;-78
2021/05/12 06:36:06;;;;;;;10.17;2.73;;;;;;;;;;5091238;28;20663;-78
2021/05/12 06:38:33;;;;;;;15.40;3.37;;;;;;;;;;5092425;28;20208;-78
2021/05/12 06:40:59;;;;;;;9.50;2.70;;;;;;;;;;5095030;28;20639;-78
2021/05/12 06:43:26;;;;;;;8.73;3.00;;;;;;;;;;5096066;28;20280;-78
2021/05/12 06:45:53;;;;;;;12.33;3.20;;;;;;;;;;5095190;28;20210;-78
2021/05/12 06:48:20;;;;;;;14.53;3.60;;;;;;;;;;5094924;28;20688;-79
2021/05/12 06:50:47;;;;;;;10.10;2.80;;;;;;;;;;5094965;28;20229;-78
2021/05/12 06:53:15;;;;;;;8.33;2.80;;;;;;;;;;5095146;28;20295;-78
2021/05/12 06:55:41;;;;;;;10.67;3.30;;;;;;;;;;5095364;28;20583;-78
2021/05/12 06:58:08;;;;;;;10.57;2.87;;;;;;;;;;5095082;28;20280;-78
2021/05/12 07:00:35;;;;;;;10.17;2.93;;;;;;;;;;5094797;28;20334;-78
2021/05/12 07:03:01;;;;;;;9.30;2.70;;;;;;;;;;5093508;28;20285;-78
2021/05/12 07:05:29;;;;;;;8.40;2.90;;;;;;;;;;5094734;28;20298;-78
2021/05/12 07:07:55;;;;;;;11.87;2.90;;;;;;;;;;5095002;28;20202;-76
2021/05/12 07:10:22;;;;;;;10.40;2.87;;;;;;;;;;5094983;28;20219;-76
2021/05/12 07:12:49;;;;;;;8.10;3.40;;;;;;;;;;5095277;28;20303;-76
2021/05/12 07:15:16;;;;;;;11.07;3.63;;;;;;;;;;5094652;28;20284;-77
2021/05/12 07:17:43;;;;;;;10.33;3.80;;;;;;;;;;5092898;28;20205;-76
2021/05/12 07:20:10;;;;;;;9.60;3.23;;;;;;;;;;5094708;28;20286;-76
2021/05/12 07:22:38;;;;;;;14.67;4.03;;;;;;;;;;5094655;28;20237;-76
2021/05/12 07:25:05;;;;;;;12.07;3.70;;;;;;;;;;5094493;28;20804;-76
2021/05/12 07:27:32;;;;;;;11.83;3.50;;;;;;;;;;5094554;28;20760;-77
2021/05/12 07:29:59;;;;;;;10.17;3.27;;;;;;;;;;5094992;28;20304;-77
2021/05/12 07:32:26;;;;;;;14.63;3.63;;;;;;;;;;5094058;28;20281;-76
2021/05/12 07:34:52;;;;;;;7.50;3.00;;;;;;;;;;5094578;28;20636;-76
2021/05/12 07:37:19;;;;;;;10.43;3.90;;;;;;;;;;5093511;28;20215;-77
2021/05/12 07:39:47;;;;;;;8.67;3.73;;;;;;;;;;5093884;28;20205;-76
2021/05/12 07:42:16;;;;;;;10.97;3.30;;;;;;;;;;5093965;28;20720;-77
2021/05/12 07:44:43;;;;;;;10.87;3.40;;;;;;;;;;5082172;28;20331;-76
2021/05/12 07:47:10;;;;;;;9.23;3.07;;;;;;;;;;5093964;28;20202;-76
2021/05/12 07:49:38;;;;;;;8.40;3.23;;;;;;;;;;5093786;28;20584;-77
2021/05/12 07:52:12;;;;;;;9.10;3.73;;;;;;;;;;5093321;28;20199;-76
2021/05/12 07:54:39;;;;;;;10.80;3.93;;;;;;;;;;5093541;28;20228;-76
2021/05/12 07:57:07;;;;;;;10.20;3.87;;;;;;;;;;5094069;28;20241;-77
2021/05/12 07:59:33;;;;;;;12.90;4.47;;;;;;;;;;5093996;28;20368;-77
2021/05/12 08:02:02;;;;;;;10.07;3.60;;;;;;;;;;5093739;28;20285;-76
2021/05/12 08:04:28;;;;;;;14.40;4.13;;;;;;;;;;5092887;28;20225;-78
2021/05/12 08:06:55;;;;;;;10.70;3.90;;;;;;;;;;5094142;28;20289;-77
2021/05/12 08:09:22;;;;;;;12.03;4.10;;;;;;;;;;5092635;28;20229;-77
2021/05/12 08:11:49;;;;;;;12.63;3.70;;;;;;;;;;5092808;28;20343;-76
2021/05/12 08:14:17;;;;;;;7.57;3.70;;;;;;;;;;5091579;28;20310;-77
2021/05/12 08:16:44;;;;;;;13.03;3.50;;;;;;;;;;5093209;28;20201;-79
2021/05/12 08:19:11;;;;;;;7.80;3.33;;;;;;;;;;5093543;28;20649;-76
2021/05/12 08:21:38;;;;;;;10.13;3.60;;;;;;;;;;5093574;28;20286;-77
2021/05/12 08:24:05;;;;;;;8.43;3.80;;;;;;;;;;5093210;28;20301;-77
2021/05/12 08:26:31;;;;;;;9.03;3.47;;;;;;;;;;5093370;28;20293;-77
2021/05/12 08:28:59;;;;;;;8.63;3.40;;;;;;;;;;5083212;28;20610;-76
2021/05/12 08:31:27;;;;;;;9.60;3.70;;;;;;;;;;5093538;28;20199;-76
2021/05/12 08:33:54;;;;;;;10.30;3.47;;;;;;;;;;5092726;28;20195;-76
2021/05/12 08:36:21;;;;;;;12.20;3.67;;;;;;;;;;5093460;28;20680;-76
2021/05/12 08:38:48;;;;;;;11.00;4.00;;;;;;;;;;5093295;28;20214;-76
2021/05/12 08:41:15;;;;;;;6.43;3.37;;;;;;;;;;5093043;28;20286;-76
2021/05/12 08:43:42;;;;;;;7.97;3.33;;;;;;;;;;5091817;28;20291;-78
2021/05/12 08:46:09;;;;;;;7.97;3.53;;;;;;;;;;5092567;28;20306;-77
2021/05/12 08:48:38;;;;;;;7.67;2.97;;;;;;;;;;5092779;28;20294;-77
2021/05/12 08:51:05;;;;;;;7.53;3.37;;;;;;;;;;5092142;28;20282;-78
2021/05/12 08:53:32;;;;;;;9.47;3.50;;;;;;;;;;5093300;28;20354;-76
2021/05/12 08:56:00;;;;;;;9.13;3.13;;;;;;;;;;5092675;28;20289;-77
2021/05/12 08:58:26;;;;;;;7.77;3.10;;;;;;;;;;5092246;28;21030;-77
2021/05/12 09:00:54;;;;;;;9.27;3.50;;;;;;;;;;5092636;28;20299;-79
2021/05/12 09:03:21;;;;;;;8.13;3.30;;;;;;;;;;5091385;28;20289;-79
2021/05/12 09:05:48;;;;;;;6.83;3.20;;;;;;;;;;5092793;28;20305;-79
2021/05/12 09:08:16;;;;;;;7.70;2.93;;;;;;;;;;5092528;28;20629;-79
2021/05/12 09:10:42;;;;;;;6.00;2.93;;;;;;;;;;5091719;28;20730;-77
2021/05/12 09:13:09;;;;;;;8.07;3.47;;;;;;;;;;5091622;28;20436;-78
2021/05/12 09:15:36;;;;;;;5.83;2.90;;;;;;;;;;5091600;28;20281;-79
2021/05/12 09:18:04;;;;;;;6.13;2.90;;;;;;;;;;5092581;28;20204;-79
2021/05/12 09:20:32;;;;;;;7.70;3.10;;;;;;;;;;5090930;28;20278;-77
2021/05/12 09:23:07;;;;;;;7.30;2.77;;;;;;;;;;5091913;28;20327;-79
2021/05/12 09:25:35;;;;;;;5.53;3.10;;;;;;;;;;5090839;28;20246;-77
2021/05/12 09:28:13;;;;;;;6.97;2.60;;;;;;;;;;5091300;28;20287;-79
2021/05/12 09:30:40;;;;;;;4.70;2.60;;;;;;;;;;5091183;28;20200;-79
2021/05/12 09:33:07;;;;;;;6.63;2.90;;;;;;;;;;5091561;28;20738;-79
2021/05/12 09:35:40;;;;;;;5.77;2.43;;;;;;;;;;5091337;28;20329;-77
2021/05/12 09:38:19;;;;;;;5.53;2.50;;;;;;;;;;5091962;28;20209;-77
2021/05/12 09:40:45;;;;;;;7.60;2.50;;;;;;;;;;5090972;28;20255;-79
2021/05/12 09:43:15;;;;;;;6.10;2.67;;;;;;;;;;5091101;28;20289;-79
2021/05/12 09:45:41;;;;;;;6.40;2.43;;;;;;;;;;5090692;28;20226;-79
2021/05/12 09:48:08;;;;;;;7.43;2.17;;;;;;;;;;5091679;28;20358;-79
2021/05/12 09:50:37;;;;;;;4.50;2.10;;;;;;;;;;5091506;28;20277;-78
2021/05/12 09:53:04;;;;;;;5.53;2.03;;;;;;;;;;5091012;28;20194;-78
2021/05/12 09:55:35;;;;;;;3.30;1.90;;;;;;;;;;5092187;28;20194;-78
2021/05/12 09:58:04;;;;;;;3.70;1.87;;;;;;;;;;5090748;28;20301;-78
2021/05/12 10:00:31;;;;;;;5.60;2.10;;;;;;;;;;5090118;28;20221;-78
2021/05/12 10:02:58;;;;;;;3.13;1.87;;;;;;;;;;5089375;28;20226;-79
2021/05/12 10:05:25;;;;;;;3.07;2.10;;;;;;;;;;5091571;28;20261;-79
2021/05/12 10:07:52;;;;;;;4.73;2.07;;;;;;;;;;5090775;28;20289;-78
2021/05/12 10:10:40;;;;;;;5.37;2.30;;;;;;;;;;5091345;28;20286;-78
2021/05/12 10:13:07;;;;;;;3.43;2.17;;;;;;;;;;5090663;28;20285;-78
2021/05/12 10:15:34;;;;;;;4.30;1.90;;;;;;;;;;5091740;28;20267;-79
2021/05/12 10:18:01;;;;;;;3.90;1.83;;;;;;;;;;5091706;28;20253;-78
2021/05/12 10:20:29;;;;;;;3.90;1.80;;;;;;;;;;5091785;28;20290;-78
2021/05/12 10:22:57;;;;;;;3.90;1.70;;;;;;;;;;5091048;28;20230;-79
2021/05/12 10:25:24;;;;;;;4.00;1.50;;;;;;;;;;5091368;28;20284;-78
2021/05/12 10:27:53;;;;;;;2.27;1.17;;;;;;;;;;5091471;28;20289;-78
2021/05/12 10:30:20;;;;;;;3.53;1.60;;;;;;;;;;5091214;28;20202;-78
2021/05/12 10:32:53;;;;;;;3.40;1.70;;;;;;;;;;5090914;28;20289;-78
2021/05/12 10:35:19;;;;;;;2.97;1.50;;;;;;;;;;5090894;28;20286;-78
2021/05/12 10:37:47;;;;;;;4.30;1.60;;;;;;;;;;5091969;28;20210;-78
2021/05/12 10:40:18;;;;;;;2.93;1.53;;;;;;;;;;5090606;28;20209;-79
2021/05/12 10:42:52;;;;;;;3.07;1.70;;;;;;;;;;5091300;28;20195;-79
2021/05/12 10:45:21;;;;;;;2.77;1.90;;;;;;;;;;5091320;28;20313;-79
2021/05/12 10:47:49;;;;;;;3.20;1.63;;;;;;;;;;5091399;28;20202;-79
2021/05/12 10:50:16;;;;;;;3.27;1.70;;;;;;;;;;5091099;28;20205;-79
2021/05/12 10:53:00;;;;;;;3.77;1.67;;;;;;;;;;5090598;28;20198;-79
2021/05/12 10:55:55;;;;;;;4.60;1.90;;;;;;;;;;5079626;28;20735;-78
2021/05/12 10:58:21;;;;;;;2.67;1.70;;;;;;;;;;5091596;28;20200;-78
2021/05/12 11:00:56;;;;;;;3.87;1.53;;;;;;;;;;5088788;28;20201;-78
2021/05/12 11:03:22;;;;;;;6.17;2.10;;;;;;;;;;5089911;28;20200;-78
2021/05/12 11:06:00;;;;;;;3.43;1.70;;;;;;;;;;5090672;28;20316;-78
2021/05/12 11:08:27;;;;;;;4.53;2.20;;;;;;;;;;5091077;28;20202;-77
2021/05/12 11:10:58;;;;;;;4.47;1.97;;;;;;;;;;5090151;28;20662;-78
2021/05/12 11:13:27;;;;;;;2.73;1.60;;;;;;;;;;5090192;28;20208;-76
2021/05/12 11:15:54;;;;;;;4.63;2.00;;;;;;;;;;5090275;28;20242;-76
2021/05/12 11:18:40;;;;;;;3.77;1.73;;;;;;;;;;5085335;28;20199;-78
2021/05/12 11:21:28;;;;;;;5.03;2.10;;;;;;;;;;5089602;28;20240;-77
2021/05/12 11:24:11;;;;;;;4.90;1.93;;;;;;;;;;5089868;28;20223;-77
2021/05/12 11:26:50;;;;;;;3.80;1.87;;;;;;;;;;5092981;28;20214;-78
2021/05/12 11:32:02;;;;;;;4.37;1.60;;;;;;;;;;5051362;28;20199;-77
2021/05/12 11:34:29;;;;;;;2.83;1.30;;;;;;;;;;5050534;28;20632;-78
2021/05/12 11:37:04;;;;;;;3.10;1.57;;;;;;;;;;5050420;28;20572;-78
2021/05/12 11:39:32;;;;;;;3.43;1.43;;;;;;;;;;5052766;28;20305;-77
2021/05/12 11:41:59;;;;;;;4.13;1.50;;;;;;;;;;5052209;28;20207;-77
2021/05/12 11:44:26;;;;;;;2.87;1.50;;;;;;;;;;5049375;28;20795;-77
2021/05/12 11:46:53;;;;;;;3.77;1.30;;;;;;;;;;5058804;28;20283;-79
2021/05/12 11:49:22;;;;;;;3.73;1.37;;;;;;;;;;5052760;28;20212;-79
2021/05/12 11:51:49;;;;;;;2.93;1.27;;;;;;;;;;5051311;28;20196;-79
2021/05/12 11:54:16;;;;;;;2.67;1.50;;;;;;;;;;5051333;28;20287;-78
2021/05/12 11:56:45;;;;;;;2.67;1.27;;;;;;;;;;5053699;28;20671;-79
2021/05/12 11:59:18;;;;;;;4.07;1.37;;;;;;;;;;5052973;28;20283;-78
2021/05/12 12:01:48;;;;;;;6.90;1.57;;;;;;;;;;5049853;28;20211;-78
2021/05/12 12:04:23;;;;;;;2.00;1.33;;;;;;;;;;5055756;28;20226;-79
2021/05/12 12:06:50;;;;;;;6.20;1.30;;;;;;;;;;5049167;28;20203;-78
2021/05/12 12:09:19;;;;;;;2.73;1.20;;;;;;;;;;5081401;28;20282;-78
2021/05/12 12:11:48;;;;;;;2.40;1.13;;;;;;;;;;5096429;28;20298;-79
2021/05/12 12:14:14;;;;;;;3.13;0.90;;;;;;;;;;5093620;28;20325;-79
2021/05/12 12:16:43;;;;;;;1.97;1.23;;;;;;;;;;5093294;28;20289;-79
2021/05/12 12:19:10;;;;;;;1.90;1.20;;;;;;;;;;5092829;28;20290;-78
2021/05/12 12:21:37;;;;;;;2.77;1.57;;;;;;;;;;5093301;28;20281;-78
2021/05/12 12:24:09;;;;;;;2.47;1.20;;;;;;;;;;5088663;28;20230;-79
2021/05/12 12:26:37;;;;;;;3.43;1.47;;;;;;;;;;5092407;28;20240;-79
2021/05/12 12:29:06;;;;;;;1.90;1.20;;;;;;;;;;5095723;28;20233;-79
2021/05/12 12:31:35;;;;;;;3.50;1.70;;;;;;;;;;5103341;28;20206;-79
2021/05/12 12:34:23;;;;;;;2.13;1.23;;;;;;;;;;5102370;28;20286;-78
2021/05/12 12:37:09;;;;;;;2.93;1.57;;;;;;;;;;5090881;28;20229;-78
2021/05/12 12:39:36;;;;;;;4.00;1.50;;;;;;;;;;5093390;28;20632;-78
2021/05/12 12:42:03;;;;;;;4.43;1.43;;;;;;;;;;5092873;28;20282;-79
2021/05/12 12:44:34;;;;;;;4.33;1.90;;;;;;;;;;5092591;28;20254;-79
2021/05/12 12:47:01;;;;;;;3.87;1.70;;;;;;;;;;5092811;28;20232;-78
2021/05/12 12:49:34;;;;;;;4.90;1.70;;;;;;;;;;5093866;28;20226;-78
2021/05/12 12:52:09;;;;;;;3.80;1.90;;;;;;;;;;5096456;28;20325;-78
2021/05/12 12:54:41;;;;;;;2.97;1.40;;;;;;;;;;5097792;28;20263;-78
2021/05/12 12:57:08;;;;;;;3.63;1.80;;;;;;;;;;5092582;28;20267;-77
2021/05/12 12:59:35;;;;;;;3.53;2.23;;;;;;;;;;5093007;28;20289;-78
2021/05/12 13:02:04;;;;;;;2.87;1.67;;;;;;;;;;5092530;28;20281;-77
2021/05/12 13:04:31;;;;;;;5.07;1.50;;;;;;;;;;5091128;28;20770;-78
2021/05/12 13:07:02;;;;;;;3.57;1.60;;;;;;;;;;5092785;28;20244;-78
2021/05/12 13:09:29;;;;;;;4.23;1.70;;;;;;;;;;5089888;28;20230;-78
2021/05/12 13:11:57;;;;;;;4.93;1.50;;;;;;;;;;5093331;28;20724;-78
2021/05/12 13:14:23;;;;;;;3.47;1.30;;;;;;;;;;5091677;28;20273;-78
2021/05/12 13:17:01;;;;;;;4.80;1.33;;;;;;;;;;5091742;28;20252;-78
2021/05/12 13:19:28;;;;;;;3.27;1.70;;;;;;;;;;5092807;28;20209;-78
2021/05/12 13:21:58;;;;;;;3.33;1.50;;;;;;;;;;5090831;28;20233;-78
2021/05/12 13:24:25;;;;;;;3.53;1.40;;;;;;;;;;5090377;28;20257;-78
2021/05/12 13:26:56;;;;;;;2.23;1.20;;;;;;;;;;5091055;28;20249;-77
2021/05/12 13:29:23;;;;;;;3.73;1.57;;;;;;;;;;5086010;28;20354;-78
2021/05/12 13:31:51;;;;;;;4.07;1.90;;;;;;;;;;5087279;28;20757;-77
2021/05/12 13:34:20;;;;;;;5.53;1.83;;;;;;;;;;5085885;28;20204;-77
2021/05/12 13:36:49;;;;;;;3.17;1.67;;;;;;;;;;5090136;28;20300;-78
2021/05/12 13:39:17;;;;;;;4.93;1.50;;;;;;;;;;5090531;28;20198;-78
2021/05/12 13:41:43;;;;;;;4.07;1.70;;;;;;;;;;5087097;28;20214;-78
2021/05/12 13:44:12;;;;;;;3.47;1.50;;;;;;;;;;5086889;28;20289;-78
2021/05/12 13:46:39;;;;;;;4.73;1.70;;;;;;;;;;5091651;28;20203;-78
2021/05/12 13:49:06;;;;;;;4.93;1.60;;;;;;;;;;5091254;28;20332;-78
2021/05/12 13:51:37;;;;;;;4.30;1.53;;;;;;;;;;5085369;28;20203;-76
2021/05/12 13:54:11;;;;;;;3.10;1.50;;;;;;;;;;5084899;28;20203;-77
2021/05/12 13:56:42;;;;;;;7.43;1.63;;;;;;;;;;5090445;28;20202;-77
2021/05/12 14:01:59;;;;;;;3.30;1.70;;;;;;;;;;5074308;28;20255;-77
2021/05/12 14:04:27;;;;;;;4.67;1.83;;;;;;;;;;5092198;28;20222;-77
2021/05/12 14:06:55;;;;;;;3.87;1.80;;;;;;;;;;5090478;28;20198;-77
2021/05/12 14:09:23;;;;;;;6.07;1.97;;;;;;;;;;5090532;28;20278;-76
2021/05/12 14:11:54;;;;;;;4.90;1.80;;;;;;;;;;5090553;28;20237;-77
2021/05/12 14:14:33;;;;;;;4.63;1.83;;;;;;;;;;5087287;28;20244;-76
2021/05/12 14:17:07;;;;;;;3.80;1.70;;;;;;;;;;5086683;28;20213;-77
2021/05/12 14:19:34;;;;;;;5.47;1.80;;;;;;;;;;5088582;28;20209;-77
2021/05/12 14:22:02;;;;;;;6.87;2.27;;;;;;;;;;5089345;28;20717;-76
2021/05/12 14:24:31;;;;;;;6.17;2.30;;;;;;;;;;5089788;28;20695;-77
2021/05/12 14:26:58;;;;;;;6.23;2.17;;;;;;;;;;5090398;28;20229;-76
2021/05/12 14:29:32;;;;;;;7.17;2.63;;;;;;;;;;5091069;28;20198;-76
2021/05/12 14:31:58;;;;;;;6.63;1.90;;;;;;;;;;5085028;28;20625;-76
2021/05/12 14:34:25;;;;;;;4.57;2.20;;;;;;;;;;5089332;28;20201;-76
2021/05/12 14:36:52;;;;;;;4.43;1.97;;;;;;;;;;5088767;28;20276;-76
2021/05/12 14:39:20;;;;;;;3.57;1.97;;;;;;;;;;5090543;28;20198;-77
2021/05/12 14:41:47;;;;;;;6.30;2.23;;;;;;;;;;5089294;28;20207;-77
2021/05/12 14:44:13;;;;;;;4.93;1.93;;;;;;;;;;5089187;28;20219;-76
2021/05/12 14:46:40;;;;;;;4.80;1.80;;;;;;;;;;5086309;28;20206;-76
2021/05/12 14:49:08;;;;;;;6.03;2.00;;;;;;;;;;5086473;28;20195;-76